sensor_id;sensor_type;location;lat;lon;timestamp;pressure;altitude;pressure_sealevel;temperature;humidity
6567;BME280;3317;43.994;22.878;2023-05-09T00:01:27;101687.88;;;11.79;93.03
6567;BME280;3317;43.994;22.878;2023-05-09T00:03:55;101686.03;;;11.80;92.73
6567;BME280;3317;43.994;22.878;2023-05-09T00:06:23;101684.31;;;11.79;93.14
6567;BME280;3317;43.994;22.878;2023-05-09T00:08:51;101689.88;;;11.77;93.42
6567;BME280;3317;43.994;22.878;2023-05-09T00:11:19;101718.63;;;11.80;92.79
6567;BME280;3317;43.994;22.878;2023-05-09T00:13:46;101655.09;;;11.61;92.33
6567;BME280;3317;43.994;22.878;2023-05-09T00:16:14;101688.75;;;11.80;91.35
6567;BME280;3317;43.994;22.878;2023-05-09T00:18:44;101693.28;;;11.69;90.73
6567;BME280;3317;43.994;22.878;2023-05-09T00:21:12;101705.44;;;11.65;91.33
6567;BME280;3317;43.994;22.878;2023-05-09T00:23:39;101698.25;;;11.64;91.39
6567;BME280;3317;43.994;22.878;2023-05-09T00:26:08;101685.25;;;11.58;91.48
6567;BME280;3317;43.994;22.878;2023-05-09T00:28:35;101682.41;;;11.69;90.75
6567;BME280;3317;43.994;22.878;2023-05-09T00:31:02;101679.41;;;11.73;90.28
6567;BME280;3317;43.994;22.878;2023-05-09T00:33:29;101689.44;;;11.72;90.76
6567;BME280;3317;43.994;22.878;2023-05-09T00:35:57;101688.13;;;11.66;91.28
6567;BME280;3317;43.994;22.878;2023-05-09T00:38:23;101685.25;;;11.58;91.71
6567;BME280;3317;43.994;22.878;2023-05-09T00:40:50;101680.34;;;11.52;91.81
6567;BME280;3317;43.994;22.878;2023-05-09T00:43:20;101637.63;;;11.13;91.99
6567;BME280;3317;43.994;22.878;2023-05-09T00:45:47;101661.16;;;11.34;92.27
6567;BME280;3317;43.994;22.878;2023-05-09T00:48:15;101676.28;;;11.36;92.45
6567;BME280;3317;43.994;22.878;2023-05-09T00:50:42;101698.22;;;11.54;92.41
6567;BME280;3317;43.994;22.878;2023-05-09T00:53:09;101681.63;;;11.48;92.42
6567;BME280;3317;43.994;22.878;2023-05-09T00:55:36;101640.94;;;11.17;92.64
6567;BME280;3317;43.994;22.878;2023-05-09T00:58:04;101699.81;;;11.57;93.02
6567;BME280;3317;43.994;22.878;2023-05-09T01:00:32;101704.13;;;11.60;92.80
6567;BME280;3317;43.994;22.878;2023-05-09T01:02:59;101700.72;;;11.67;92.72
6567;BME280;3317;43.994;22.878;2023-05-09T01:05:32;101695.13;;;11.69;93.09
6567;BME280;3317;43.994;22.878;2023-05-09T01:08:09;101694.88;;;11.72;93.24
6567;BME280;3317;43.994;22.878;2023-05-09T01:10:43;101673.56;;;11.67;93.25
6567;BME280;3317;43.994;22.878;2023-05-09T01:13:17;101625.28;;;11.30;93.63
6567;BME280;3317;43.994;22.878;2023-05-09T01:15:56;101706.03;;;11.79;93.06
6567;BME280;3317;43.994;22.878;2023-05-09T01:18:34;101698.88;;;11.78;93.23
6567;BME280;3317;43.994;22.878;2023-05-09T01:21:05;101707.28;;;11.75;92.37
6567;BME280;3317;43.994;22.878;2023-05-09T01:24:01;101710.56;;;11.68;92.50
6567;BME280;3317;43.994;22.878;2023-05-09T01:26:43;101678.59;;;11.41;92.75
6567;BME280;3317;43.994;22.878;2023-05-09T01:29:30;101713.50;;;11.55;93.29
6567;BME280;3317;43.994;22.878;2023-05-09T01:32:01;101709.44;;;11.40;93.63
6567;BME280;3317;43.994;22.878;2023-05-09T01:34:29;101709.56;;;11.38;93.67
6567;BME280;3317;43.994;22.878;2023-05-09T01:36:59;101700.88;;;11.35;94.27
6567;BME280;3317;43.994;22.878;2023-05-09T01:39:27;101713.28;;;11.37;93.83
6567;BME280;3317;43.994;22.878;2023-05-09T01:41:57;101707.69;;;11.29;93.93
6567;BME280;3317;43.994;22.878;2023-05-09T01:44:30;101713.16;;;11.39;93.46
6567;BME280;3317;43.994;22.878;2023-05-09T01:46:58;101694.47;;;11.15;93.47
6567;BME280;3317;43.994;22.878;2023-05-09T01:49:28;101705.22;;;11.26;93.66
6567;BME280;3317;43.994;22.878;2023-05-09T01:51:57;101699.06;;;11.24;93.66
6567;BME280;3317;43.994;22.878;2023-05-09T01:54:25;101713.91;;;11.20;94.27
6567;BME280;3317;43.994;22.878;2023-05-09T01:56:53;101703.38;;;11.26;93.91
6567;BME280;3317;43.994;22.878;2023-05-09T01:59:22;101715.63;;;11.21;94.86
6567;BME280;3317;43.994;22.878;2023-05-09T02:01:51;101711.66;;;11.25;94.44
6567;BME280;3317;43.994;22.878;2023-05-09T02:04:20;101722.50;;;11.25;94.78
6567;BME280;3317;43.994;22.878;2023-05-09T02:06:48;101706.09;;;11.26;94.45
6567;BME280;3317;43.994;22.878;2023-05-09T02:09:17;101711.97;;;11.32;94.52
6567;BME280;3317;43.994;22.878;2023-05-09T02:11:44;101714.13;;;11.28;94.88
6567;BME280;3317;43.994;22.878;2023-05-09T02:14:11;101717.41;;;11.32;95.17
6567;BME280;3317;43.994;22.878;2023-05-09T02:16:38;101725.81;;;11.29;95.37
6567;BME280;3317;43.994;22.878;2023-05-09T02:19:07;101723.25;;;11.27;95.59
6567;BME280;3317;43.994;22.878;2023-05-09T02:21:34;101726.28;;;11.34;95.57
6567;BME280;3317;43.994;22.878;2023-05-09T02:24:01;101734.94;;;11.27;95.37
6567;BME280;3317;43.994;22.878;2023-05-09T02:26:29;101728.56;;;11.38;94.57
6567;BME280;3317;43.994;22.878;2023-05-09T02:28:57;101723.69;;;11.32;94.63
6567;BME280;3317;43.994;22.878;2023-05-09T02:31:26;101707.59;;;11.40;93.59
6567;BME280;3317;43.994;22.878;2023-05-09T02:33:55;101726.31;;;11.44;93.79
6567;BME280;3317;43.994;22.878;2023-05-09T02:36:24;101730.03;;;11.43;93.66
6567;BME280;3317;43.994;22.878;2023-05-09T02:38:52;101717.16;;;11.35;93.72
6567;BME280;3317;43.994;22.878;2023-05-09T02:41:19;101727.13;;;11.34;93.18
6567;BME280;3317;43.994;22.878;2023-05-09T02:43:47;101734.63;;;11.21;92.72
6567;BME280;3317;43.994;22.878;2023-05-09T02:46:16;101718.91;;;11.15;92.09
6567;BME280;3317;43.994;22.878;2023-05-09T02:48:43;101714.59;;;11.12;92.44
6567;BME280;3317;43.994;22.878;2023-05-09T02:51:10;101723.31;;;11.16;91.78
6567;BME280;3317;43.994;22.878;2023-05-09T02:53:39;101725.38;;;11.23;91.12
6567;BME280;3317;43.994;22.878;2023-05-09T02:56:06;101730.47;;;11.17;91.41
6567;BME280;3317;43.994;22.878;2023-05-09T02:58:35;101715.66;;;10.99;92.02
6567;BME280;3317;43.994;22.878;2023-05-09T03:01:02;101733.25;;;11.05;92.27
6567;BME280;3317;43.994;22.878;2023-05-09T03:03:29;101736.22;;;11.02;92.25
6567;BME280;3317;43.994;22.878;2023-05-09T03:05:58;101732.59;;;10.92;92.55
6567;BME280;3317;43.994;22.878;2023-05-09T03:08:25;101747.75;;;10.94;92.33
6567;BME280;3317;43.994;22.878;2023-05-09T03:10:53;101737.78;;;10.83;92.49
6567;BME280;3317;43.994;22.878;2023-05-09T03:13:20;101737.19;;;10.80;93.47
6567;BME280;3317;43.994;22.878;2023-05-09T03:15:47;101762.97;;;10.74;94.39
6567;BME280;3317;43.994;22.878;2023-05-09T03:18:14;101744.78;;;10.65;94.46
6567;BME280;3317;43.994;22.878;2023-05-09T03:20:41;101746.91;;;10.61;95.02
6567;BME280;3317;43.994;22.878;2023-05-09T03:23:08;101751.56;;;10.70;94.95
6567;BME280;3317;43.994;22.878;2023-05-09T03:25:35;101757.81;;;10.71;94.81
6567;BME280;3317;43.994;22.878;2023-05-09T03:28:03;101758.53;;;10.73;95.02
6567;BME280;3317;43.994;22.878;2023-05-09T03:30:30;101777.94;;;10.68;95.20
6567;BME280;3317;43.994;22.878;2023-05-09T03:32:57;101781.16;;;10.62;95.47
6567;BME280;3317;43.994;22.878;2023-05-09T03:35:24;101774.34;;;10.68;95.08
6567;BME280;3317;43.994;22.878;2023-05-09T03:38:07;101782.13;;;10.61;95.12
6567;BME280;3317;43.994;22.878;2023-05-09T03:40:40;101770.69;;;10.57;94.62
6567;BME280;3317;43.994;22.878;2023-05-09T03:43:09;101791.88;;;10.64;94.65
6567;BME280;3317;43.994;22.878;2023-05-09T03:45:36;101780.34;;;10.50;94.52
6567;BME280;3317;43.994;22.878;2023-05-09T03:48:04;101793.97;;;10.60;94.71
6567;BME280;3317;43.994;22.878;2023-05-09T03:50:34;101771.28;;;10.61;94.46
6567;BME280;3317;43.994;22.878;2023-05-09T03:53:01;101777.38;;;10.53;95.21
6567;BME280;3317;43.994;22.878;2023-05-09T03:55:28;101786.69;;;10.61;94.46
6567;BME280;3317;43.994;22.878;2023-05-09T03:57:55;101790.75;;;10.55;95.28
6567;BME280;3317;43.994;22.878;2023-05-09T04:00:23;101790.28;;;10.61;95.15
6567;BME280;3317;43.994;22.878;2023-05-09T04:02:51;101806.44;;;10.51;95.31
6567;BME280;3317;43.994;22.878;2023-05-09T04:05:19;101789.47;;;10.49;94.92
6567;BME280;3317;43.994;22.878;2023-05-09T04:07:46;101730.63;;;10.17;94.77
6567;BME280;3317;43.994;22.878;2023-05-09T04:10:13;101792.53;;;10.56;95.34
6567;BME280;3317;43.994;22.878;2023-05-09T04:12:40;101802.84;;;10.62;95.13
6567;BME280;3317;43.994;22.878;2023-05-09T04:15:09;101801.25;;;10.48;96.03
6567;BME280;3317;43.994;22.878;2023-05-09T04:17:38;101799.66;;;10.57;95.85
6567;BME280;3317;43.994;22.878;2023-05-09T04:22:51;101794.53;;;10.42;93.24
6567;BME280;3317;43.994;22.878;2023-05-09T04:25:18;101797.25;;;10.42;92.62
6567;BME280;3317;43.994;22.878;2023-05-09T04:27:47;101800.53;;;10.35;92.98
6567;BME280;3317;43.994;22.878;2023-05-09T04:30:15;101778.75;;;10.25;92.54
6567;BME280;3317;43.994;22.878;2023-05-09T04:32:43;101731.16;;;9.99;92.54
6567;BME280;3317;43.994;22.878;2023-05-09T04:35:11;101793.88;;;10.39;92.36
6567;BME280;3317;43.994;22.878;2023-05-09T04:37:38;101816.78;;;10.35;92.74
6567;BME280;3317;43.994;22.878;2023-05-09T04:40:07;101813.84;;;10.38;92.65
6567;BME280;3317;43.994;22.878;2023-05-09T04:42:34;101805.94;;;10.46;92.93
6567;BME280;3317;43.994;22.878;2023-05-09T04:45:02;101809.06;;;10.30;93.63
6567;BME280;3317;43.994;22.878;2023-05-09T04:47:29;101820.84;;;10.40;93.45
6567;BME280;3317;43.994;22.878;2023-05-09T04:49:57;101810.91;;;10.41;94.11
6567;BME280;3317;43.994;22.878;2023-05-09T04:52:24;101767.31;;;10.10;93.83
6567;BME280;3317;43.994;22.878;2023-05-09T04:54:52;101820.25;;;10.37;94.74
6567;BME280;3317;43.994;22.878;2023-05-09T04:57:20;101824.44;;;10.41;95.52
6567;BME280;3317;43.994;22.878;2023-05-09T04:59:46;101829.88;;;10.41;94.76
6567;BME280;3317;43.994;22.878;2023-05-09T05:02:14;101822.47;;;10.43;94.21
6567;BME280;3317;43.994;22.878;2023-05-09T05:04:41;101837.00;;;10.42;94.35
6567;BME280;3317;43.994;22.878;2023-05-09T05:07:09;101815.69;;;10.37;93.92
6567;BME280;3317;43.994;22.878;2023-05-09T05:09:38;101820.75;;;10.42;94.04
6567;BME280;3317;43.994;22.878;2023-05-09T05:12:05;101819.75;;;10.43;93.73
6567;BME280;3317;43.994;22.878;2023-05-09T05:14:33;101815.22;;;10.44;93.04
6567;BME280;3317;43.994;22.878;2023-05-09T05:17:00;101816.69;;;10.48;92.42
6567;BME280;3317;43.994;22.878;2023-05-09T05:19:27;101835.53;;;10.38;92.96
6567;BME280;3317;43.994;22.878;2023-05-09T05:21:54;101823.69;;;10.39;92.14
6567;BME280;3317;43.994;22.878;2023-05-09T05:24:22;101811.63;;;10.32;92.57
6567;BME280;3317;43.994;22.878;2023-05-09T05:26:49;101825.91;;;10.34;93.41
6567;BME280;3317;43.994;22.878;2023-05-09T05:29:16;101833.19;;;10.33;92.92
6567;BME280;3317;43.994;22.878;2023-05-09T05:31:43;101820.47;;;10.34;92.66
6567;BME280;3317;43.994;22.878;2023-05-09T05:34:10;101826.41;;;10.27;93.38
6567;BME280;3317;43.994;22.878;2023-05-09T05:36:37;101826.06;;;10.21;93.73
6567;BME280;3317;43.994;22.878;2023-05-09T05:39:03;101815.47;;;10.18;93.00
6567;BME280;3317;43.994;22.878;2023-05-09T05:41:32;101813.34;;;10.10;92.97
6567;BME280;3317;43.994;22.878;2023-05-09T05:43:59;101837.38;;;10.26;92.19
6567;BME280;3317;43.994;22.878;2023-05-09T05:46:25;101834.03;;;10.22;92.13
6567;BME280;3317;43.994;22.878;2023-05-09T05:48:52;101836.38;;;10.27;92.06
6567;BME280;3317;43.994;22.878;2023-05-09T05:51:21;101845.13;;;10.31;92.21
6567;BME280;3317;43.994;22.878;2023-05-09T05:53:47;101849.56;;;10.32;91.87
6567;BME280;3317;43.994;22.878;2023-05-09T05:56:15;101831.31;;;10.34;92.34
6567;BME280;3317;43.994;22.878;2023-05-09T05:58:43;101853.34;;;10.40;91.25
6567;BME280;3317;43.994;22.878;2023-05-09T06:01:10;101843.66;;;10.26;91.19
6567;BME280;3317;43.994;22.878;2023-05-09T06:03:38;101844.75;;;10.24;91.81
6567;BME280;3317;43.994;22.878;2023-05-09T06:06:05;101849.44;;;10.33;91.30
6567;BME280;3317;43.994;22.878;2023-05-09T06:08:32;101773.75;;;9.86;91.59
6567;BME280;3317;43.994;22.878;2023-05-09T06:11:00;101805.13;;;10.00;91.28
6567;BME280;3317;43.994;22.878;2023-05-09T06:13:27;101838.88;;;10.19;91.79
6567;BME280;3317;43.994;22.878;2023-05-09T06:15:55;101846.22;;;10.28;91.43
6567;BME280;3317;43.994;22.878;2023-05-09T06:18:22;101841.06;;;10.25;91.80
6567;BME280;3317;43.994;22.878;2023-05-09T06:20:50;101847.09;;;10.28;91.93
6567;BME280;3317;43.994;22.878;2023-05-09T06:23:17;101844.41;;;10.17;92.04
6567;BME280;3317;43.994;22.878;2023-05-09T06:25:46;101851.66;;;10.28;91.59
6567;BME280;3317;43.994;22.878;2023-05-09T06:28:14;101861.75;;;10.26;91.77
6567;BME280;3317;43.994;22.878;2023-05-09T06:30:42;101864.19;;;10.29;91.02
6567;BME280;3317;43.994;22.878;2023-05-09T06:33:10;101865.56;;;10.35;90.79
6567;BME280;3317;43.994;22.878;2023-05-09T06:35:37;101856.94;;;10.29;91.51
6567;BME280;3317;43.994;22.878;2023-05-09T06:38:04;101864.19;;;10.29;91.29
6567;BME280;3317;43.994;22.878;2023-05-09T06:40:31;101798.72;;;10.01;90.28
6567;BME280;3317;43.994;22.878;2023-05-09T06:42:58;101855.47;;;10.14;90.63
6567;BME280;3317;43.994;22.878;2023-05-09T06:45:25;101676.69;;;9.24;90.31
6567;BME280;3317;43.994;22.878;2023-05-09T06:47:52;101854.13;;;10.31;91.08
6567;BME280;3317;43.994;22.878;2023-05-09T06:50:21;101850.44;;;10.32;90.84
6567;BME280;3317;43.994;22.878;2023-05-09T06:52:48;101847.94;;;10.29;90.40
6567;BME280;3317;43.994;22.878;2023-05-09T06:55:15;101853.00;;;10.34;90.24
6567;BME280;3317;43.994;22.878;2023-05-09T06:57:42;101845.84;;;10.33;89.90
6567;BME280;3317;43.994;22.878;2023-05-09T07:00:09;101851.00;;;10.36;90.16
6567;BME280;3317;43.994;22.878;2023-05-09T07:02:36;101837.72;;;10.33;89.92
6567;BME280;3317;43.994;22.878;2023-05-09T07:05:07;101847.75;;;10.44;89.72
6567;BME280;3317;43.994;22.878;2023-05-09T07:07:36;101840.94;;;10.38;90.26
6567;BME280;3317;43.994;22.878;2023-05-09T07:10:03;101850.78;;;10.39;89.64
6567;BME280;3317;43.994;22.878;2023-05-09T07:12:31;101861.03;;;10.47;88.88
6567;BME280;3317;43.994;22.878;2023-05-09T07:14:58;101857.34;;;10.48;88.18
6567;BME280;3317;43.994;22.878;2023-05-09T07:17:25;101852.63;;;10.50;87.67
6567;BME280;3317;43.994;22.878;2023-05-09T07:19:54;101857.22;;;10.49;87.04
6567;BME280;3317;43.994;22.878;2023-05-09T07:22:21;101852.91;;;10.47;86.61
6567;BME280;3317;43.994;22.878;2023-05-09T07:24:50;101854.25;;;10.41;86.97
6567;BME280;3317;43.994;22.878;2023-05-09T07:27:17;101856.69;;;10.33;87.96
6567;BME280;3317;43.994;22.878;2023-05-09T07:29:43;101853.34;;;10.40;88.38
6567;BME280;3317;43.994;22.878;2023-05-09T07:32:10;101867.91;;;10.39;88.88
6567;BME280;3317;43.994;22.878;2023-05-09T07:34:37;101861.63;;;10.39;88.60
6567;BME280;3317;43.994;22.878;2023-05-09T07:37:04;101869.03;;;10.37;88.17
6567;BME280;3317;43.994;22.878;2023-05-09T07:39:31;101857.69;;;10.43;87.68
6567;BME280;3317;43.994;22.878;2023-05-09T07:41:59;101865.34;;;10.49;87.66
6567;BME280;3317;43.994;22.878;2023-05-09T07:44:28;101860.16;;;10.46;88.35
6567;BME280;3317;43.994;22.878;2023-05-09T07:46:55;101860.78;;;10.50;88.01
6567;BME280;3317;43.994;22.878;2023-05-09T07:49:23;101870.38;;;10.54;88.11
6567;BME280;3317;43.994;22.878;2023-05-09T07:51:50;101858.69;;;10.53;87.82
6567;BME280;3317;43.994;22.878;2023-05-09T07:54:17;101866.19;;;10.61;87.98
6567;BME280;3317;43.994;22.878;2023-05-09T07:56:44;101861.00;;;10.58;88.42
6567;BME280;3317;43.994;22.878;2023-05-09T07:59:12;101864.09;;;10.53;89.01
6567;BME280;3317;43.994;22.878;2023-05-09T08:01:39;101830.84;;;10.28;88.26
6567;BME280;3317;43.994;22.878;2023-05-09T08:04:06;101860.63;;;10.63;88.26
6567;BME280;3317;43.994;22.878;2023-05-09T08:06:34;101857.31;;;10.59;88.42
6567;BME280;3317;43.994;22.878;2023-05-09T08:09:02;101865.19;;;10.51;89.28
6567;BME280;3317;43.994;22.878;2023-05-09T08:11:31;101861.00;;;10.58;89.39
6567;BME280;3317;43.994;22.878;2023-05-09T08:13:59;101862.59;;;10.61;89.13
6567;BME280;3317;43.994;22.878;2023-05-09T08:16:27;101864.19;;;10.63;89.18
6567;BME280;3317;43.994;22.878;2023-05-09T08:18:54;101864.53;;;10.70;89.75
6567;BME280;3317;43.994;22.878;2023-05-09T08:21:21;101860.50;;;10.64;90.28
6567;BME280;3317;43.994;22.878;2023-05-09T08:23:48;101861.25;;;10.55;90.84
6567;BME280;3317;43.994;22.878;2023-05-09T08:26:15;101862.47;;;10.62;90.25
6567;BME280;3317;43.994;22.878;2023-05-09T08:28:42;101866.09;;;10.51;90.06
6567;BME280;3317;43.994;22.878;2023-05-09T08:31:09;101851.56;;;10.41;90.39
6567;BME280;3317;43.994;22.878;2023-05-09T08:33:38;101881.22;;;10.54;90.25
6567;BME280;3317;43.994;22.878;2023-05-09T08:36:05;101897.72;;;10.51;90.80
6567;BME280;3317;43.994;22.878;2023-05-09T08:38:32;101876.41;;;10.57;90.11
6567;BME280;3317;43.994;22.878;2023-05-09T08:41:00;101878.38;;;10.55;90.10
6567;BME280;3317;43.994;22.878;2023-05-09T08:43:28;101870.00;;;10.47;90.74
6567;BME280;3317;43.994;22.878;2023-05-09T08:45:58;101879.84;;;10.60;90.82
6567;BME280;3317;43.994;22.878;2023-05-09T08:48:27;101868.53;;;10.54;90.71
6567;BME280;3317;43.994;22.878;2023-05-09T08:50:56;101884.13;;;10.74;90.21
6567;BME280;3317;43.994;22.878;2023-05-09T08:53:23;101878.97;;;10.70;90.29
6567;BME280;3317;43.994;22.878;2023-05-09T08:55:51;101880.97;;;10.68;89.67
6567;BME280;3317;43.994;22.878;2023-05-09T08:58:18;101883.53;;;10.59;90.09
6567;BME280;3317;43.994;22.878;2023-05-09T09:00:47;101871.94;;;10.68;89.91
6567;BME280;3317;43.994;22.878;2023-05-09T09:03:16;101877.38;;;10.68;89.88
6567;BME280;3317;43.994;22.878;2023-05-09T09:05:43;101861.09;;;10.68;89.83
6567;BME280;3317;43.994;22.878;2023-05-09T09:08:14;101875.75;;;10.77;89.73
6567;BME280;3317;43.994;22.878;2023-05-09T09:10:43;101868.72;;;10.74;89.18
6567;BME280;3317;43.994;22.878;2023-05-09T09:13:13;101861.69;;;10.83;88.92
6567;BME280;3317;43.994;22.878;2023-05-09T09:15:41;101888.63;;;10.96;88.26
6567;BME280;3317;43.994;22.878;2023-05-09T09:18:11;101881.03;;;10.90;88.89
6567;BME280;3317;43.994;22.878;2023-05-09T09:20:40;101876.81;;;10.85;88.97
6567;BME280;3317;43.994;22.878;2023-05-09T09:23:11;101865.03;;;10.75;89.17
6567;BME280;3317;43.994;22.878;2023-05-09T09:25:39;101877.97;;;10.83;87.81
6567;BME280;3317;43.994;22.878;2023-05-09T09:28:06;101878.97;;;10.82;88.03
6567;BME280;3317;43.994;22.878;2023-05-09T09:30:42;101887.81;;;10.84;87.74
6567;BME280;3317;43.994;22.878;2023-05-09T09:33:18;101874.59;;;10.91;86.41
6567;BME280;3317;43.994;22.878;2023-05-09T09:35:48;101874.34;;;10.94;86.02
6567;BME280;3317;43.994;22.878;2023-05-09T09:38:16;101871.28;;;10.87;87.26
6567;BME280;3317;43.994;22.878;2023-05-09T09:40:55;101873.09;;;10.98;87.43
6567;BME280;3317;43.994;22.878;2023-05-09T09:43:30;101881.13;;;10.88;89.38
6567;BME280;3317;43.994;22.878;2023-05-09T09:46:00;101871.16;;;10.89;90.41
6567;BME280;3317;43.994;22.878;2023-05-09T09:48:30;101867.22;;;10.81;90.20
6567;BME280;3317;43.994;22.878;2023-05-09T09:51:02;101875.84;;;10.87;90.30
6567;BME280;3317;43.994;22.878;2023-05-09T09:53:29;101880.06;;;10.79;89.16
6567;BME280;3317;43.994;22.878;2023-05-09T09:55:58;101858.47;;;10.78;88.33
6567;BME280;3317;43.994;22.878;2023-05-09T09:58:25;101875.44;;;10.91;88.66
6567;BME280;3317;43.994;22.878;2023-05-09T10:01:05;101872.50;;;10.94;88.39
6567;BME280;3317;43.994;22.878;2023-05-09T10:03:36;101876.09;;;10.83;89.41
6567;BME280;3317;43.994;22.878;2023-05-09T10:06:04;101875.84;;;10.87;89.75
6567;BME280;3317;43.994;22.878;2023-05-09T10:08:31;101872.41;;;10.84;90.11
6567;BME280;3317;43.994;22.878;2023-05-09T10:10:59;101871.41;;;10.85;89.92
6567;BME280;3317;43.994;22.878;2023-05-09T10:13:27;101877.94;;;10.94;89.69
6567;BME280;3317;43.994;22.878;2023-05-09T10:15:54;101870.75;;;10.93;89.54
6567;BME280;3317;43.994;22.878;2023-05-09T10:18:25;101874.22;;;10.95;89.42
6567;BME280;3317;43.994;22.878;2023-05-09T10:20:52;101873.69;;;11.02;89.17
6567;BME280;3317;43.994;22.878;2023-05-09T10:23:22;101866.16;;;11.05;89.35
6567;BME280;3317;43.994;22.878;2023-05-09T10:25:57;101890.31;;;11.08;89.39
6567;BME280;3317;43.994;22.878;2023-05-09T10:28:31;101888.88;;;11.04;89.53
6567;BME280;3317;43.994;22.878;2023-05-09T10:31:07;101870.59;;;11.06;88.58
6567;BME280;3317;43.994;22.878;2023-05-09T10:33:41;101882.94;;;10.99;89.46
6567;BME280;3317;43.994;22.878;2023-05-09T10:36:09;101877.75;;;11.07;89.53
6567;BME280;3317;43.994;22.878;2023-05-09T10:38:37;101867.88;;;11.06;88.63
6567;BME280;3317;43.994;22.878;2023-05-09T10:41:05;101873.09;;;10.98;89.70
6567;BME280;3317;43.994;22.878;2023-05-09T10:43:34;101864.06;;;11.09;88.96
6567;BME280;3317;43.994;22.878;2023-05-09T10:46:01;101869.84;;;11.16;88.63
6567;BME280;3317;43.994;22.878;2023-05-09T10:48:29;101859.97;;;11.15;89.01
6567;BME280;3317;43.994;22.878;2023-05-09T10:50:59;101858.72;;;11.19;88.03
6567;BME280;3317;43.994;22.878;2023-05-09T10:53:39;101853.28;;;11.19;88.07
6567;BME280;3317;43.994;22.878;2023-05-09T10:56:07;101864.13;;;11.19;87.73
6567;BME280;3317;43.994;22.878;2023-05-09T10:58:35;101855.22;;;11.28;87.13
6567;BME280;3317;43.994;22.878;2023-05-09T11:01:04;101856.69;;;11.32;87.31
6567;BME280;3317;43.994;22.878;2023-05-09T11:03:52;101864.03;;;11.41;86.75
6567;BME280;3317;43.994;22.878;2023-05-09T11:06:42;101865.03;;;11.40;87.41
6567;BME280;3317;43.994;22.878;2023-05-09T11:09:33;101862.31;;;11.40;87.20
6567;BME280;3317;43.994;22.878;2023-05-09T11:12:10;101857.72;;;11.41;87.41
6567;BME280;3317;43.994;22.878;2023-05-09T11:14:41;101850.97;;;11.35;87.37
6567;BME280;3317;43.994;22.878;2023-05-09T11:17:13;101850.84;;;11.37;87.06
6567;BME280;3317;43.994;22.878;2023-05-09T11:19:58;101850.25;;;11.33;86.58
6567;BME280;3317;43.994;22.878;2023-05-09T11:22:26;101836.28;;;11.38;85.50
6567;BME280;3317;43.994;22.878;2023-05-09T11:24:59;101834.31;;;11.40;86.07
6567;BME280;3317;43.994;22.878;2023-05-09T11:27:38;101835.06;;;11.52;85.65
6567;BME280;3317;43.994;22.878;2023-05-09T11:30:09;101831.84;;;11.58;86.03
6567;BME280;3317;43.994;22.878;2023-05-09T11:32:42;101830.19;;;11.67;85.45
6567;BME280;3317;43.994;22.878;2023-05-09T11:35:10;101836.81;;;11.74;85.10
6567;BME280;3317;43.994;22.878;2023-05-09T11:37:44;101835.31;;;11.91;84.36
6567;BME280;3317;43.994;22.878;2023-05-09T11:40:14;101820.81;;;11.81;85.26
6567;BME280;3317;43.994;22.878;2023-05-09T11:42:42;101832.00;;;11.88;85.56
6567;BME280;3317;43.994;22.878;2023-05-09T11:45:12;101817.16;;;11.92;85.48
6567;BME280;3317;43.994;22.878;2023-05-09T11:47:40;101829.88;;;11.91;85.30
6567;BME280;3317;43.994;22.878;2023-05-09T11:50:08;101831.59;;;11.92;83.92
6567;BME280;3317;43.994;22.878;2023-05-09T11:52:36;101772.44;;;11.65;83.30
6567;BME280;3317;43.994;22.878;2023-05-09T11:55:05;101824.91;;;11.96;83.29
6567;BME280;3317;43.994;22.878;2023-05-09T11:57:34;101786.44;;;11.70;83.77
6567;BME280;3317;43.994;22.878;2023-05-09T12:00:01;101827.41;;;11.88;83.82
6567;BME280;3317;43.994;22.878;2023-05-09T12:02:31;101814.00;;;11.87;83.61
6567;BME280;3317;43.994;22.878;2023-05-09T12:05:06;101820.91;;;12.01;83.17
6567;BME280;3317;43.994;22.878;2023-05-09T12:07:35;101818.00;;;12.14;82.29
6567;BME280;3317;43.994;22.878;2023-05-09T12:10:05;101818.81;;;12.04;82.40
6567;BME280;3317;43.994;22.878;2023-05-09T12:12:33;101800.31;;;11.98;81.94
6567;BME280;3317;43.994;22.878;2023-05-09T12:15:06;101818.09;;;12.02;82.02
6567;BME280;3317;43.994;22.878;2023-05-09T12:17:35;101817.81;;;12.05;81.49
6567;BME280;3317;43.994;22.878;2023-05-09T12:20:03;101804.88;;;11.97;81.73
6567;BME280;3317;43.994;22.878;2023-05-09T12:22:30;101790.38;;;11.87;82.03
6567;BME280;3317;43.994;22.878;2023-05-09T12:25:00;101799.91;;;12.03;81.47
6567;BME280;3317;43.994;22.878;2023-05-09T12:27:28;101801.38;;;12.07;81.56
6567;BME280;3317;43.994;22.878;2023-05-09T12:29:57;101784.50;;;12.13;81.38
6567;BME280;3317;43.994;22.878;2023-05-09T12:32:24;101782.47;;;12.05;81.37
6567;BME280;3317;43.994;22.878;2023-05-09T12:34:57;101772.63;;;12.04;80.91
6567;BME280;3317;43.994;22.878;2023-05-09T12:37:24;101765.06;;;12.08;81.10
6567;BME280;3317;43.994;22.878;2023-05-09T12:40:01;101774.63;;;12.12;80.80
6567;BME280;3317;43.994;22.878;2023-05-09T12:42:29;101778.94;;;12.15;80.57
6567;BME280;3317;43.994;22.878;2023-05-09T12:44:56;101770.09;;;12.22;80.23
6567;BME280;3317;43.994;22.878;2023-05-09T12:47:25;101775.41;;;12.24;79.52
6567;BME280;3317;43.994;22.878;2023-05-09T12:49:57;101761.81;;;12.34;79.24
6567;BME280;3317;43.994;22.878;2023-05-09T12:52:24;101752.97;;;12.42;78.46
6567;BME280;3317;43.994;22.878;2023-05-09T12:54:52;101765.97;;;12.48;79.09
6567;BME280;3317;43.994;22.878;2023-05-09T12:57:23;101744.09;;;12.59;78.70
6567;BME280;3317;43.994;22.878;2023-05-09T12:59:56;101757.72;;;12.69;77.78
6567;BME280;3317;43.994;22.878;2023-05-09T13:02:25;101733.09;;;12.61;77.49
6567;BME280;3317;43.994;22.878;2023-05-09T13:05:06;101746.13;;;12.77;77.56
6567;BME280;3317;43.994;22.878;2023-05-09T13:07:38;101732.25;;;12.70;77.79
6567;BME280;3317;43.994;22.878;2023-05-09T13:10:09;101718.78;;;12.59;77.68
6567;BME280;3317;43.994;22.878;2023-05-09T13:12:37;101746.38;;;12.74;77.74